Tum Tum, Washington
Current Conditions -  °F | °C
As of 9:53 AM on Thursday 29 Jan 2015 (Local Time) from KDEW Reporting Station
Clear Clear  
Wind Chill: 30°   Ceiling: Unl
Heat Index: 30°   Visibility: 10mi
Dew Point: 29°   Wind: 3mph
Humidity: 96%   Direction: 160°SSE
Pressure: 30.44"   Gusts: NA
Location:  47.9026°N, 117.708°W
Report Text: KDEW 291753Z AUTO 16003KT 10SM CLR M01/M02 A3044 RMK AO2 SLP334 I6000 T10111017 11011 21050 52002
Loading
Personal Weather Stations






























Interactive Weather Map New forecast layout! Learn more

10-Day Weather Forecast

Advertisements
Track Severe Weather on mobile